KHEZ/HEZ METAR and TAF weather

Enter ICAO airport designator
Station Type Date Time Source
KHEZ METAR 2020/01/26 18:56 UTC NOAA

KHEZ 261856Z AUTO 13006KT 10SM -RA OVC010 10/09 A3003 RMK AO2 CIG 007V013 SLP170 P0001 T01000089


Station Type Date Time Source
KHEZ Decoded METAR 2020/01/26 18:56 UTC NOAA

Natchez, Hardy-Anders Field Natchez-Adams County Airport, MS, United States (KHEZ) 31-37N 091-18W
Jan 26, 2020 - 01:56 PM EST / 2020.01.26 1856 UTC
Wind: from the SE (130 degrees) at 7 MPH (6 KT):0
Visibility: 10 mile(s):0
Sky conditions: overcast
Weather: light rain
Precipitation last hour: 0.01 inches
Temperature: 50.0 F (10.0 C)
Dew Point: 48.0 F (8.9 C)
Relative Humidity: 92%
Pressure (altimeter): 30.03 in. Hg (1016 hPa)
ob: KHEZ 261856Z AUTO 13006KT 10SM -RA OVC010 10/09 A3003 RMK AO2 CIG 007V013 SLP170 P0001 T01000089
cycle: 19

Station Type Date Time Source
KHEZ TAF UTC NOAA

Error!

Example: see airport list